createdAt,value
2022-10-18T03:58:43.875Z,0.00
2022-10-18T03:59:43.977Z,0.00
2022-10-18T04:00:44.102Z,0.00
2022-10-18T04:01:46.021Z,0.00
2022-10-18T04:02:44.323Z,0.00
2022-10-18T04:03:45.560Z,0.00
2022-10-18T04:04:44.644Z,0.00
2022-10-18T04:05:44.733Z,0.00
2022-10-18T04:06:44.883Z,0.00
2022-10-18T04:07:46.043Z,0.00
2022-10-18T04:08:46.750Z,0.00
2022-10-18T04:09:46.971Z,0.00
2022-10-18T04:10:45.441Z,0.00
2022-10-18T04:11:45.619Z,0.00
2022-10-18T04:12:45.718Z,0.00
2022-10-18T04:13:46.943Z,0.00
2022-10-18T04:14:47.664Z,0.00
2022-10-18T04:15:46.122Z,0.00
2022-10-18T04:16:46.297Z,0.00
2022-10-18T04:17:46.377Z,0.00
2022-10-18T04:18:46.529Z,0.00
2022-10-18T04:19:48.237Z,0.00
2022-10-18T04:20:46.807Z,0.00
2022-10-18T04:21:46.938Z,0.00
2022-10-18T04:22:48.668Z,0.00
2022-10-18T04:23:47.234Z,0.00
2022-10-18T04:24:47.390Z,0.00
2022-10-18T04:25:47.532Z,0.00
2022-10-18T04:26:47.671Z,0.00
2022-10-18T04:27:48.901Z,0.00
2022-10-18T04:28:47.947Z,0.00
2022-10-18T04:29:48.073Z,0.00
2022-10-18T04:30:49.215Z,0.00
2022-10-18T04:31:48.322Z,0.00
2022-10-18T04:32:50.056Z,0.00
2022-10-18T04:33:48.577Z,0.00
2022-10-18T04:34:48.707Z,0.00
2022-10-18T04:35:48.837Z,0.00
2022-10-18T04:36:50.580Z,0.00
2022-10-18T04:37:50.808Z,0.00
2022-10-18T04:38:49.225Z,0.00
2022-10-18T04:39:53.518Z,0.00
2022-10-18T04:40:49.484Z,0.00
2022-10-18T04:41:49.618Z,0.00
2022-10-18T04:42:49.756Z,0.00
2022-10-18T04:43:49.908Z,0.00
2022-10-18T04:44:51.614Z,0.00
2022-10-18T04:45:50.213Z,0.00
2022-10-18T04:46:50.295Z,0.00
2022-10-18T04:47:50.470Z,0.00
2022-10-18T04:48:51.664Z,0.00
2022-10-18T04:49:50.743Z,0.00
2022-10-18T04:50:50.824Z,0.00
2022-10-18T04:51:51.002Z,0.00
2022-10-18T04:52:51.153Z,0.00
2022-10-18T04:53:52.874Z,0.00
2022-10-18T04:54:51.403Z,0.00
2022-10-18T04:55:52.500Z,0.00
2022-10-18T04:56:51.701Z,0.00
2022-10-18T04:57:53.414Z,0.00
2022-10-18T04:58:51.943Z,0.00
2022-10-18T04:59:53.675Z,0.00
2022-10-18T05:00:52.244Z,0.00
2022-10-18T05:01:52.468Z,0.00
2022-10-18T05:02:52.542Z,0.00
2022-10-18T05:03:53.623Z,0.00
2022-10-18T05:04:54.332Z,0.00
2022-10-18T05:06:01.779Z,0.00
2022-10-18T05:06:54.051Z,0.00
2022-10-18T05:07:53.243Z,0.00
2022-10-18T05:08:54.451Z,0.00
2022-10-18T05:09:53.522Z,0.00
2022-10-18T05:10:53.651Z,0.00
2022-10-18T05:11:53.763Z,0.00
2022-10-18T05:12:55.491Z,0.00
2022-10-18T05:13:54.070Z,0.00
2022-10-18T05:14:56.822Z,0.00
2022-10-18T05:15:54.333Z,0.00
2022-10-18T05:16:54.491Z,0.00
2022-10-18T05:17:54.633Z,0.00
2022-10-18T05:18:55.812Z,0.00
2022-10-18T05:19:56.502Z,0.00
2022-10-18T05:20:56.740Z,0.00
2022-10-18T05:21:55.240Z,0.00
2022-10-18T05:22:56.959Z,0.00
2022-10-18T05:23:57.184Z,0.00
2022-10-18T05:24:55.641Z,0.00
2022-10-18T05:25:55.779Z,0.00
2022-10-18T05:26:55.909Z,0.00
2022-10-18T05:27:56.039Z,0.00
2022-10-18T05:28:57.389Z,0.00
2022-10-18T05:29:57.956Z,0.00
2022-10-18T05:30:58.032Z,0.00
2022-10-18T05:31:58.299Z,0.00
2022-10-18T05:32:58.508Z,0.00
2022-10-18T05:33:56.790Z,0.00
2022-10-18T05:34:56.960Z,0.00
2022-10-18T05:35:58.688Z,0.00
2022-10-18T05:36:57.138Z,0.00
2022-10-18T05:37:57.292Z,0.00
2022-10-18T05:39:00.933Z,0.00
2022-10-18T05:39:58.561Z,0.00
2022-10-18T05:41:00.217Z,0.00
2022-10-18T05:41:57.809Z,0.00
2022-10-18T05:42:58.917Z,0.00
2022-10-18T05:43:58.039Z,0.00
2022-10-18T05:44:58.137Z,0.00
2022-10-18T05:45:59.858Z,0.00
2022-10-18T05:46:58.455Z,0.00
2022-10-18T05:47:58.565Z,0.00
2022-10-18T05:48:58.646Z,0.00
2022-10-18T05:49:58.843Z,0.00
2022-10-18T05:51:00.556Z,0.00
2022-10-18T05:51:59.085Z,0.00
2022-10-18T05:53:11.933Z,0.00
2022-10-18T05:54:00.370Z,0.00
2022-10-18T05:54:59.494Z,0.00
2022-10-18T05:55:59.662Z,0.00
2022-10-18T05:56:59.823Z,0.00
2022-10-18T05:58:01.530Z,0.00
2022-10-18T05:59:00.145Z,0.00
2022-10-18T06:00:00.246Z,0.00
2022-10-18T06:01:00.421Z,0.00
2022-10-18T06:02:00.533Z,0.00
2022-10-18T06:03:02.268Z,0.00
2022-10-18T06:04:00.776Z,0.00
2022-10-18T06:05:00.914Z,0.00
2022-10-18T06:06:01.063Z,0.00
2022-10-18T06:07:01.241Z,0.00
2022-10-18T06:08:05.256Z,0.00
2022-10-18T06:09:02.471Z,0.00
2022-10-18T06:10:01.603Z,0.00
2022-10-18T06:11:03.357Z,0.00
2022-10-18T06:12:03.584Z,0.00
2022-10-18T06:13:02.066Z,0.00
2022-10-18T06:14:02.213Z,0.00
2022-10-18T06:15:03.379Z,0.00
2022-10-18T06:16:02.506Z,0.00
2022-10-18T06:17:04.252Z,0.00
2022-10-18T06:18:04.482Z,0.00
2022-10-18T06:19:02.913Z,0.00
2022-10-18T06:20:03.075Z,0.00
2022-10-18T06:21:03.233Z,0.00
2022-10-18T06:22:04.952Z,0.00
2022-10-18T06:23:03.532Z,0.00
2022-10-18T06:24:05.271Z,0.00
2022-10-18T06:25:03.811Z,0.00
2022-10-18T06:26:05.585Z,0.00
2022-10-18T06:28:05.971Z,0.00
2022-10-18T06:29:05.998Z,0.00
2022-10-18T06:30:04.529Z,0.00
2022-10-18T06:31:04.702Z,0.00
2022-10-18T06:32:04.791Z,0.00
2022-10-18T06:33:06.525Z,0.00
2022-10-18T06:34:05.003Z,0.00
2022-10-18T06:35:05.183Z,0.00
2022-10-18T06:36:05.312Z,0.00
2022-10-18T06:37:05.426Z,0.00
2022-10-18T06:38:06.651Z,0.00
2022-10-18T06:39:07.394Z,0.00
2022-10-18T06:40:05.930Z,0.00
2022-10-18T06:41:06.001Z,0.00
2022-10-18T06:42:07.738Z,0.00
2022-10-18T06:43:20.029Z,0.00
2022-10-18T06:44:09.065Z,0.00
2022-10-18T06:45:06.598Z,0.00
2022-10-18T06:46:08.357Z,0.00
2022-10-18T06:47:06.824Z,0.00
2022-10-18T06:48:08.616Z,0.00
2022-10-18T06:49:08.808Z,0.00
2022-10-18T06:50:07.227Z,0.00
2022-10-18T06:51:08.951Z,0.00
2022-10-18T06:52:07.489Z,0.00
2022-10-18T06:53:09.219Z,0.00
2022-10-18T06:54:18.509Z,0.00
2022-10-18T06:55:10.724Z,0.00
2022-10-18T06:56:08.003Z,0.00
2022-10-18T06:57:09.784Z,0.00
2022-10-18T06:58:08.257Z,0.00
2022-10-18T06:59:10.020Z,5.62
2022-10-18T07:00:10.285Z,5.62
2022-10-18T07:01:10.641Z,5.62
2022-10-18T07:02:08.971Z,5.62
2022-10-18T07:03:10.630Z,5.62
2022-10-18T07:04:09.110Z,5.62
2022-10-18T07:05:10.839Z,5.62
2022-10-18T07:06:10.603Z,5.62
2022-10-18T07:07:11.300Z,5.62
2022-10-18T07:08:11.544Z,5.62
2022-10-18T07:09:09.797Z,5.62
2022-10-18T07:10:13.083Z,5.62
2022-10-18T07:11:09.996Z,5.62
2022-10-18T07:12:11.729Z,5.62
2022-10-18T07:14:16.060Z,5.62
2022-10-18T07:15:13.165Z,5.62
2022-10-18T07:16:12.827Z,5.62
2022-10-18T07:17:11.843Z,5.62
2022-10-18T07:18:10.974Z,5.62
2022-10-18T07:19:12.737Z,5.62
2022-10-18T07:20:13.027Z,5.62
2022-10-18T07:21:13.217Z,5.62
2022-10-18T07:22:11.597Z,5.62
2022-10-18T07:23:13.339Z,5.62
2022-10-18T07:24:13.562Z,5.62
2022-10-18T07:25:13.787Z,5.62
2022-10-18T07:26:14.034Z,5.62
2022-10-18T07:27:13.744Z,5.62
2022-10-18T07:28:13.986Z,5.62
2022-10-18T07:29:13.724Z,5.62
2022-10-18T07:30:14.454Z,5.62
2022-10-18T07:31:14.717Z,5.62
2022-10-18T07:32:14.432Z,5.62
2022-10-18T07:33:14.692Z,5.62
2022-10-18T07:34:14.930Z,5.62
2022-10-18T07:35:15.177Z,5.62
2022-10-18T07:36:15.413Z,5.62
2022-10-18T07:37:15.623Z,5.62
2022-10-18T07:38:13.764Z,5.62
2022-10-18T07:39:13.922Z,5.62
2022-10-18T07:40:14.106Z,5.62
2022-10-18T07:41:15.823Z,5.62
2022-10-18T07:42:14.401Z,5.62
2022-10-18T07:43:16.136Z,5.62
2022-10-18T07:44:16.363Z,5.62
2022-10-18T07:45:16.623Z,5.62
2022-10-18T07:46:14.943Z,5.62
2022-10-18T07:47:16.681Z,5.62
2022-10-18T07:48:16.934Z,5.62
2022-10-18T07:49:17.172Z,5.62
2022-10-18T07:50:15.432Z,5.62
2022-10-18T07:51:16.196Z,5.62
2022-10-18T07:52:15.703Z,5.62
2022-10-18T07:53:17.431Z,5.62
2022-10-18T07:54:17.666Z,5.62
2022-10-18T07:55:17.883Z,5.62
2022-10-18T07:56:18.150Z,5.62
2022-10-18T07:57:17.357Z,5.62
2022-10-18T07:58:18.073Z,5.62
2022-10-18T07:59:18.299Z,5.62
2022-10-18T08:00:18.530Z,5.62
2022-10-18T08:01:18.826Z,5.62
2022-10-18T08:02:18.524Z,5.62
2022-10-18T08:03:18.779Z,5.62
2022-10-18T08:04:18.982Z,5.62
2022-10-18T08:05:19.217Z,5.62
2022-10-18T08:06:19.460Z,5.62
2022-10-18T08:07:19.680Z,5.62
2022-10-18T08:08:19.428Z,5.62
2022-10-18T08:09:17.984Z,5.62
2022-10-18T08:10:19.715Z,5.62
2022-10-18T08:11:18.220Z,11.25
2022-10-18T08:12:18.376Z,11.25
2022-10-18T08:13:18.522Z,11.25
2022-10-18T08:14:20.270Z,11.25
2022-10-18T08:15:20.490Z,11.25
2022-10-18T08:16:20.797Z,11.25
2022-10-18T08:17:18.969Z,11.25
2022-10-18T08:18:20.149Z,11.25
2022-10-18T08:19:20.928Z,11.25
2022-10-18T08:20:30.551Z,16.88
2022-10-18T08:21:21.540Z,16.88
2022-10-18T08:22:19.637Z,22.50
2022-10-18T08:23:20.808Z,22.50
2022-10-18T08:24:19.966Z,28.12
2022-10-18T08:25:20.058Z,28.12
2022-10-18T08:26:21.803Z,22.50
2022-10-18T08:27:21.987Z,22.50
2022-10-18T08:28:22.219Z,16.88
2022-10-18T08:29:24.995Z,22.50
2022-10-18T08:30:22.687Z,22.50
2022-10-18T08:31:22.928Z,22.50
2022-10-18T08:32:22.686Z,22.50
2022-10-18T08:33:22.957Z,22.50
2022-10-18T08:34:22.684Z,16.88
2022-10-18T08:35:23.402Z,16.88
2022-10-18T08:36:23.139Z,11.25
2022-10-18T08:37:23.391Z,16.88
2022-10-18T08:38:23.622Z,11.25
2022-10-18T08:39:22.069Z,11.25
2022-10-18T08:40:22.194Z,11.25
2022-10-18T08:41:23.936Z,11.25
2022-10-18T08:42:22.444Z,5.62
2022-10-18T08:43:22.634Z,5.62
2022-10-18T08:44:24.315Z,5.62
2022-10-18T08:45:37.757Z,5.62
2022-10-18T08:46:24.019Z,5.62
2022-10-18T08:47:24.746Z,5.62
2022-10-18T08:48:24.992Z,5.62
2022-10-18T08:49:25.273Z,5.62
2022-10-18T08:50:25.495Z,5.62
2022-10-18T08:51:23.653Z,5.62
2022-10-18T08:52:25.406Z,5.62
2022-10-18T08:53:25.678Z,5.62
2022-10-18T08:54:24.114Z,5.62
2022-10-18T08:55:24.233Z,5.62
2022-10-18T08:56:24.415Z,11.25
2022-10-18T08:57:26.133Z,11.25
2022-10-18T08:58:25.697Z,11.25
2022-10-18T08:59:25.632Z,11.25
2022-10-18T09:00:24.984Z,11.25
2022-10-18T09:01:25.054Z,11.25
2022-10-18T09:02:26.790Z,11.25
2022-10-18T09:03:25.314Z,5.62
2022-10-18T09:04:25.445Z,11.25
2022-10-18T09:05:25.552Z,5.62
2022-10-18T09:06:25.652Z,5.62
2022-10-18T09:07:27.391Z,5.62
2022-10-18T09:08:25.962Z,5.62
2022-10-18T09:09:26.078Z,5.62
2022-10-18T09:10:27.131Z,5.62
2022-10-18T09:11:26.940Z,5.62
2022-10-18T09:12:26.465Z,5.62
2022-10-18T09:13:27.182Z,5.62
2022-10-18T09:14:26.732Z,5.62
2022-10-18T09:15:26.845Z,5.62
2022-10-18T09:16:28.531Z,5.62
2022-10-18T09:17:27.119Z,11.25
2022-10-18T09:18:28.858Z,16.88
2022-10-18T09:19:29.089Z,11.25
2022-10-18T09:20:29.354Z,5.62
2022-10-18T09:21:29.559Z,16.88
2022-10-18T09:22:30.126Z,16.88
2022-10-18T09:23:29.533Z,16.88
2022-10-18T09:24:29.781Z,16.88
2022-10-18T09:25:30.058Z,22.50
2022-10-18T09:26:30.289Z,16.88
2022-10-18T09:27:30.026Z,22.50
2022-10-18T09:28:30.311Z,16.88
2022-10-18T09:29:30.459Z,22.50
2022-10-18T09:30:29.830Z,16.88
2022-10-18T09:31:29.974Z,16.88
2022-10-18T09:32:31.242Z,11.25
2022-10-18T09:33:29.218Z,16.88
2022-10-18T09:34:29.377Z,22.50
2022-10-18T09:35:29.676Z,28.12
2022-10-18T09:36:29.658Z,28.12
2022-10-18T09:37:31.387Z,22.50
2022-10-18T09:38:30.005Z,16.88
2022-10-18T09:39:30.142Z,33.75
2022-10-18T09:40:30.298Z,16.88
2022-10-18T09:41:30.453Z,16.88
2022-10-18T09:42:32.500Z,22.50
2022-10-18T09:43:30.769Z,22.50
2022-10-18T09:44:30.909Z,28.12
2022-10-18T09:45:31.069Z,22.50
2022-10-18T09:46:31.246Z,22.50
2022-10-18T09:47:32.978Z,22.50
2022-10-18T09:48:31.470Z,22.50
2022-10-18T09:49:31.608Z,22.50
2022-10-18T09:50:33.356Z,22.50
2022-10-18T09:51:33.579Z,22.50
2022-10-18T09:52:34.100Z,16.88
2022-10-18T09:53:32.230Z,22.50
2022-10-18T09:54:32.946Z,16.88
2022-10-18T09:55:32.522Z,39.38
2022-10-18T09:56:35.545Z,16.88
2022-10-18T09:57:35.517Z,22.50
2022-10-18T09:58:33.667Z,16.88
2022-10-18T09:59:34.878Z,16.88
2022-10-18T10:00:33.126Z,22.50
2022-10-18T10:01:33.868Z,28.12
2022-10-18T10:12:48.842Z,16.88
2022-10-18T10:13:48.839Z,16.88
2022-10-18T10:14:49.200Z,22.50
2022-10-18T10:15:48.295Z,22.50
2022-10-18T10:16:51.448Z,16.88
2022-10-18T10:17:51.179Z,16.88
2022-10-18T10:18:51.158Z,16.88
2022-10-18T10:19:51.272Z,16.88
2022-10-18T10:20:52.938Z,16.88
2022-10-18T10:21:49.119Z,16.88
2022-10-18T10:22:51.759Z,16.88
2022-10-18T10:23:51.988Z,16.88
2022-10-18T10:24:49.488Z,16.88
2022-10-18T10:25:51.249Z,16.88
2022-10-18T10:26:49.787Z,16.88
2022-10-18T10:27:49.938Z,16.88
2022-10-18T10:28:51.735Z,16.88
2022-10-18T10:29:50.293Z,16.88
2022-10-18T10:30:51.969Z,16.88
2022-10-18T10:31:50.538Z,16.88
2022-10-18T10:32:50.627Z,16.88
2022-10-18T10:33:52.374Z,16.88
2022-10-18T10:34:52.616Z,16.88
2022-10-18T10:35:54.383Z,16.88
2022-10-18T10:36:52.869Z,16.88
2022-10-18T10:37:53.098Z,16.88
2022-10-18T10:38:53.320Z,16.88
2022-10-18T10:40:13.784Z,11.25
2022-10-18T10:40:52.759Z,11.25
2022-10-18T10:41:53.486Z,11.25
2022-10-18T10:42:54.524Z,11.25
2022-10-18T10:43:54.779Z,11.25
2022-10-18T10:44:52.327Z,16.88
2022-10-18T10:45:55.014Z,16.88
2022-10-18T10:46:53.355Z,11.25
2022-10-18T10:47:55.297Z,11.25
2022-10-18T10:49:09.626Z,11.25
2022-10-18T10:49:54.855Z,11.25
2022-10-18T10:50:55.241Z,16.88
2022-10-18T10:52:02.541Z,16.88
2022-10-18T10:52:56.086Z,11.25
2022-10-18T10:53:53.654Z,16.88
2022-10-18T10:55:05.410Z,11.25
2022-10-18T10:55:55.892Z,16.88
2022-10-18T10:56:54.966Z,16.88
2022-10-18T10:57:56.815Z,16.88
2022-10-18T10:58:57.134Z,16.88
2022-10-18T10:59:55.182Z,11.25
2022-10-18T11:00:57.096Z,16.88
2022-10-18T11:01:55.503Z,16.88
2022-10-18T11:03:06.034Z,16.88
2022-10-18T11:03:56.037Z,16.88
2022-10-18T11:04:55.123Z,16.88
2022-10-18T11:05:55.289Z,16.88
2022-10-18T11:06:55.424Z,16.88
2022-10-18T11:07:57.161Z,16.88
2022-10-18T11:08:55.756Z,16.88
2022-10-18T11:09:57.484Z,16.88
2022-10-18T11:10:57.710Z,16.88
2022-10-18T11:11:57.958Z,16.88
2022-10-18T11:12:58.162Z,16.88
2022-10-18T11:14:13.788Z,16.88
2022-10-18T11:14:57.579Z,16.88
2022-10-18T11:15:58.312Z,16.88
2022-10-18T11:16:58.542Z,16.88
2022-10-18T11:17:58.776Z,16.88
2022-10-18T11:18:58.093Z,16.88
2022-10-18T11:19:57.456Z,16.88
2022-10-18T11:20:57.373Z,16.88
2022-10-18T11:21:57.569Z,16.88
2022-10-18T11:22:58.801Z,16.88
2022-10-18T11:23:57.842Z,16.88
2022-10-18T11:24:58.012Z,16.88
2022-10-18T11:25:59.120Z,16.88
2022-10-18T11:26:58.260Z,16.88
2022-10-18T11:27:59.988Z,16.88
2022-10-18T11:28:58.595Z,16.88
2022-10-18T11:29:59.669Z,16.88
2022-10-18T11:30:59.754Z,16.88
2022-10-18T11:31:58.901Z,16.88
2022-10-18T11:33:00.631Z,16.88
2022-10-18T11:34:14.548Z,16.88
2022-10-18T11:35:00.227Z,16.88
2022-10-18T11:36:03.765Z,16.88
2022-10-18T11:37:26.665Z,16.88
2022-10-18T11:38:00.659Z,16.88
2022-10-18T11:39:00.888Z,16.88
2022-10-18T11:39:59.974Z,16.88
2022-10-18T11:41:00.109Z,16.88
2022-10-18T11:42:01.847Z,16.88
2022-10-18T11:43:00.427Z,16.88
2022-10-18T11:44:03.125Z,16.88
2022-10-18T11:45:00.688Z,16.88
2022-10-18T11:46:02.482Z,16.88
2022-10-18T11:47:00.971Z,16.88
2022-10-18T11:48:01.071Z,16.88
2022-10-18T11:49:02.232Z,16.88
2022-10-18T11:50:01.347Z,22.50
2022-10-18T11:51:03.097Z,22.50
2022-10-18T11:52:08.367Z,16.88
2022-10-18T11:53:02.731Z,16.88
2022-10-18T11:54:03.476Z,22.50
2022-10-18T11:55:03.078Z,16.88
2022-10-18T11:56:03.796Z,16.88
2022-10-18T11:57:02.330Z,16.88
2022-10-18T11:58:02.522Z,16.88
2022-10-18T11:59:02.597Z,22.50
2022-10-18T12:00:02.759Z,22.50
2022-10-18T12:01:05.920Z,22.50
2022-10-18T12:02:05.638Z,22.50
2022-10-18T12:03:05.165Z,22.50
2022-10-18T12:04:03.307Z,22.50
2022-10-18T12:05:22.510Z,16.88
2022-10-18T12:06:05.487Z,16.88
2022-10-18T12:07:06.236Z,22.50
2022-10-18T12:08:03.866Z,22.50
2022-10-18T12:09:07.042Z,22.50
2022-10-18T12:10:05.811Z,22.50
2022-10-18T12:11:05.774Z,22.50
2022-10-18T12:12:04.345Z,22.50
2022-10-18T12:13:04.546Z,22.50
2022-10-18T12:14:06.242Z,16.88
2022-10-18T12:15:04.754Z,16.88
2022-10-18T12:16:06.489Z,22.50
2022-10-18T12:17:39.808Z,22.50
2022-10-18T12:18:06.125Z,16.88
2022-10-18T12:19:05.259Z,16.88
2022-10-18T12:20:05.413Z,16.88
2022-10-18T12:21:05.586Z,16.88
2022-10-18T12:22:07.326Z,16.88
2022-10-18T12:23:05.846Z,16.88
2022-10-18T12:24:05.985Z,16.88
2022-10-18T12:25:06.133Z,22.50
2022-10-18T12:26:06.309Z,16.88
2022-10-18T12:27:08.005Z,16.88
2022-10-18T12:28:06.619Z,22.50
2022-10-18T12:29:07.738Z,22.50
2022-10-18T12:30:06.845Z,22.50
2022-10-18T12:31:06.983Z,16.88
2022-10-18T12:32:08.713Z,16.88
2022-10-18T12:33:23.544Z,16.88
2022-10-18T12:34:09.967Z,16.88
2022-10-18T12:35:07.463Z,16.88
2022-10-18T12:36:07.602Z,16.88
2022-10-18T12:37:07.769Z,16.88
2022-10-18T12:38:09.497Z,16.88
2022-10-18T12:39:08.025Z,16.88
2022-10-18T12:40:11.465Z,16.88
2022-10-18T12:41:09.353Z,22.50
2022-10-18T12:42:10.076Z,22.50
2022-10-18T12:43:08.553Z,22.50
2022-10-18T12:44:08.702Z,22.50
2022-10-18T12:45:08.863Z,22.50
2022-10-18T12:46:13.299Z,22.50
2022-10-18T12:47:10.776Z,22.50
2022-10-18T12:48:09.331Z,22.50
2022-10-18T12:49:11.093Z,22.50
2022-10-18T12:50:09.589Z,22.50
2022-10-18T12:51:09.693Z,22.50
2022-10-18T12:52:09.781Z,22.50
2022-10-18T12:53:11.512Z,22.50
2022-10-18T12:54:10.031Z,22.50
2022-10-18T12:55:13.942Z,22.50
2022-10-18T12:56:11.290Z,22.50
2022-10-18T12:57:12.033Z,22.50
2022-10-18T12:58:10.572Z,22.50
2022-10-18T12:59:10.785Z,22.50
2022-10-18T13:00:13.516Z,22.50
2022-10-18T13:01:11.188Z,22.50
2022-10-18T13:02:12.800Z,22.50
2022-10-18T13:03:11.320Z,22.50
2022-10-18T13:04:13.051Z,22.50
2022-10-18T13:05:22.305Z,22.50
2022-10-18T13:06:12.784Z,22.50
2022-10-18T13:07:11.921Z,22.50
2022-10-18T13:08:12.022Z,22.50
2022-10-18T13:09:13.311Z,22.50
2022-10-18T13:10:14.032Z,22.50
2022-10-18T13:11:12.520Z,22.50
2022-10-18T13:12:12.620Z,22.50
2022-10-18T13:13:35.896Z,22.50
2022-10-18T13:14:15.462Z,22.50
2022-10-18T13:15:25.559Z,22.50
2022-10-18T13:16:14.143Z,22.50
2022-10-18T13:17:14.871Z,22.50
2022-10-18T13:18:13.388Z,22.50
2022-10-18T13:19:15.118Z,22.50
2022-10-18T13:20:25.543Z,22.50
2022-10-18T13:21:14.777Z,22.50
2022-10-18T13:22:13.948Z,22.50
2022-10-18T13:24:15.800Z,22.50
2022-10-18T13:25:14.284Z,22.50
2022-10-18T13:26:14.427Z,22.50
2022-10-18T13:27:35.009Z,22.50
2022-10-18T13:28:15.742Z,22.50
2022-10-18T13:29:16.575Z,22.50
2022-10-18T13:30:16.735Z,22.50
2022-10-18T13:31:15.171Z,22.50
2022-10-18T13:33:15.399Z,22.50
2022-10-18T13:34:15.531Z,22.50
2022-10-18T13:35:17.257Z,22.50
2022-10-18T13:36:21.619Z,22.50
2022-10-18T13:37:16.880Z,22.50
2022-10-18T13:38:16.027Z,22.50
2022-10-18T13:39:16.178Z,22.50
2022-10-18T13:40:17.890Z,22.50
2022-10-18T13:41:16.449Z,22.50
2022-10-18T13:42:16.593Z,22.50
2022-10-18T13:43:16.742Z,22.50
2022-10-18T13:44:16.937Z,22.50
2022-10-18T13:45:18.156Z,16.88
2022-10-18T13:46:17.233Z,16.88
2022-10-18T13:47:18.970Z,16.88
2022-10-18T13:48:17.495Z,16.88
2022-10-18T13:49:19.235Z,16.88
2022-10-18T13:50:19.504Z,16.88
2022-10-18T13:51:17.964Z,16.88
2022-10-18T13:52:18.866Z,16.88
2022-10-18T13:53:18.223Z,16.88
2022-10-18T13:54:19.983Z,16.88
2022-10-18T13:55:20.213Z,16.88
2022-10-18T13:56:18.619Z,16.88
2022-10-18T13:57:18.715Z,16.88
2022-10-18T13:58:18.859Z,16.88
2022-10-18T13:59:20.599Z,16.88
2022-10-18T14:00:20.180Z,16.88
2022-10-18T14:01:20.955Z,16.88
2022-10-18T14:02:36.304Z,16.88
2022-10-18T14:03:37.884Z,16.88
2022-10-18T14:04:22.322Z,16.88
2022-10-18T14:05:25.345Z,16.88
2022-10-18T14:06:19.998Z,16.88
2022-10-18T14:07:20.159Z,11.25
2022-10-18T14:08:20.244Z,11.25
2022-10-18T14:09:26.108Z,11.25
2022-10-18T14:10:29.791Z,11.25
2022-10-18T14:11:23.364Z,11.25
2022-10-18T14:12:20.745Z,11.25
2022-10-18T14:13:20.904Z,11.25
2022-10-18T14:14:21.054Z,11.25
2022-10-18T14:15:21.231Z,11.25
2022-10-18T14:16:22.951Z,11.25
2022-10-18T14:17:21.490Z,11.25
2022-10-18T14:18:21.640Z,11.25
2022-10-18T14:19:21.731Z,11.25
2022-10-18T14:20:24.753Z,11.25
2022-10-18T14:21:30.216Z,11.25
2022-10-18T14:22:23.182Z,11.25
2022-10-18T14:23:22.332Z,16.88
2022-10-18T14:24:22.430Z,16.88
2022-10-18T14:25:22.571Z,16.88
2022-10-18T14:26:24.293Z,22.50
2022-10-18T14:27:23.843Z,22.50
2022-10-18T14:28:36.330Z,16.88
2022-10-18T14:29:24.178Z,11.25
2022-10-18T14:30:23.300Z,11.25
2022-10-18T14:31:24.399Z,16.88
2022-10-18T14:32:25.189Z,16.88
2022-10-18T14:33:25.409Z,16.88
2022-10-18T14:34:23.899Z,16.88
2022-10-18T14:35:32.546Z,16.88
2022-10-18T14:36:25.193Z,11.25
2022-10-18T14:37:25.945Z,11.25
2022-10-18T14:38:25.140Z,11.25
2022-10-18T14:39:24.578Z,11.25
2022-10-18T14:40:24.737Z,11.25
2022-10-18T14:41:24.838Z,11.25
2022-10-18T14:42:26.578Z,11.25
2022-10-18T14:43:25.143Z,11.25
2022-10-18T14:44:25.288Z,11.25
2022-10-18T14:45:25.400Z,11.25
2022-10-18T14:46:28.080Z,11.25
2022-10-18T14:47:26.339Z,11.25
2022-10-18T14:48:25.851Z,11.25
2022-10-18T14:49:27.577Z,11.25
2022-10-18T14:50:30.236Z,11.25
2022-10-18T14:51:27.897Z,11.25
2022-10-18T14:52:26.703Z,5.62
2022-10-18T14:53:26.608Z,5.62
2022-10-18T14:54:30.634Z,5.62
2022-10-18T14:55:28.849Z,5.62
2022-10-18T14:56:28.578Z,5.62
2022-10-18T14:57:27.167Z,5.62
2022-10-18T14:58:28.905Z,5.62
2022-10-18T14:59:27.438Z,5.62
2022-10-18T15:00:27.598Z,5.62
2022-10-18T15:01:27.949Z,5.62
2022-10-18T15:02:29.548Z,5.62
2022-10-18T15:03:28.009Z,5.62
2022-10-18T15:04:28.759Z,5.62
2022-10-18T15:05:28.286Z,5.62
2022-10-18T15:06:28.436Z,5.62
2022-10-18T15:07:29.810Z,5.62
2022-10-18T15:08:28.706Z,5.62
2022-10-18T15:10:30.616Z,5.62
2022-10-18T15:11:30.838Z,5.62
2022-10-18T15:12:36.994Z,5.62
2022-10-18T15:13:30.435Z,5.62
2022-10-18T15:14:29.557Z,5.62
2022-10-18T15:15:29.728Z,5.62
2022-10-18T15:16:29.838Z,5.62
2022-10-18T15:17:31.557Z,5.62
2022-10-18T15:19:30.304Z,5.62
2022-10-18T15:20:30.394Z,5.62
2022-10-18T15:21:30.586Z,5.62
2022-10-18T15:22:33.001Z,5.62
2022-10-18T15:23:30.879Z,5.62
2022-10-18T15:24:31.052Z,5.62
2022-10-18T15:25:32.105Z,5.62
2022-10-18T15:26:31.267Z,5.62
2022-10-18T15:27:33.282Z,5.62
2022-10-18T15:28:31.577Z,5.62
2022-10-18T15:29:31.683Z,5.62
2022-10-18T15:30:31.843Z,5.62
2022-10-18T15:31:32.034Z,5.62
2022-10-18T15:32:34.132Z,5.62
2022-10-18T15:33:32.283Z,5.62
2022-10-18T15:34:34.015Z,5.62
2022-10-18T15:35:32.603Z,5.62
2022-10-18T15:36:34.343Z,5.62
2022-10-18T15:37:34.789Z,0.00
2022-10-18T15:38:33.001Z,0.00
2022-10-18T15:39:33.149Z,0.00
2022-10-18T15:40:33.264Z,0.00
2022-10-18T15:41:33.519Z,0.00
2022-10-18T15:42:33.595Z,0.00
2022-10-18T15:43:35.372Z,0.00
2022-10-18T15:44:33.922Z,0.00
2022-10-18T15:45:34.080Z,0.00
2022-10-18T15:46:34.157Z,0.00
2022-10-18T15:47:35.853Z,0.00
2022-10-18T15:48:34.394Z,0.00
2022-10-18T15:49:36.114Z,0.00
2022-10-18T15:50:34.739Z,0.00
2022-10-18T15:51:34.873Z,0.00
2022-10-18T15:52:38.606Z,0.00
2022-10-18T15:53:35.067Z,0.00
2022-10-18T15:54:36.896Z,0.00
2022-10-18T15:55:35.315Z,0.00
2022-10-18T15:56:35.432Z,0.00
2022-10-18T15:57:37.629Z,0.00
2022-10-18T15:58:35.740Z,0.00
2022-10-18T15:59:35.856Z,0.00
2022-10-18T16:00:37.566Z,0.00
2022-10-18T16:12:00.979Z,0.00
2022-10-18T16:13:02.753Z,0.00
2022-10-18T16:14:01.136Z,0.00
2022-10-18T16:15:01.305Z,0.00
2022-10-18T16:16:01.435Z,0.00
2022-10-18T16:17:05.215Z,0.00
2022-10-18T16:18:02.441Z,0.00
2022-10-18T16:19:01.677Z,0.00
2022-10-18T16:20:01.835Z,0.00
2022-10-18T16:21:01.998Z,0.00
2022-10-18T16:22:06.719Z,0.00
2022-10-18T16:23:02.333Z,0.00
2022-10-18T16:24:03.243Z,0.00
2022-10-18T16:25:02.636Z,0.00
2022-10-18T16:26:02.795Z,0.00
2022-10-18T16:27:02.954Z,0.00
2022-10-18T16:28:03.771Z,0.00
2022-10-18T16:29:02.357Z,0.00
2022-10-18T16:30:07.248Z,0.00
2022-10-18T16:31:03.659Z,0.00
2022-10-18T16:32:02.713Z,0.00
2022-10-18T16:33:03.946Z,0.00
2022-10-18T16:34:03.015Z,0.00
2022-10-18T16:35:03.158Z,0.00
2022-10-18T16:36:03.334Z,0.00
2022-10-18T16:37:05.095Z,0.00
2022-10-18T16:38:05.320Z,0.00
2022-10-18T16:39:03.749Z,0.00
2022-10-18T16:40:05.482Z,0.00
2022-10-18T16:41:04.075Z,0.00
2022-10-18T16:42:04.156Z,0.00
2022-10-18T16:43:05.202Z,0.00
2022-10-18T16:44:04.393Z,0.00
2022-10-18T16:45:07.055Z,0.00
2022-10-18T16:46:04.781Z,0.00
2022-10-18T16:47:06.474Z,0.00
2022-10-18T16:48:06.701Z,0.00
2022-10-18T16:49:05.171Z,0.00
2022-10-18T16:50:06.672Z,0.00
2022-10-18T16:51:06.289Z,0.00
2022-10-18T16:52:07.202Z,0.00
2022-10-18T16:53:08.202Z,0.00
2022-10-18T16:54:08.455Z,0.00
2022-10-18T16:55:06.921Z,0.00
2022-10-18T16:56:07.723Z,0.00
2022-10-18T16:57:06.991Z,0.00
2022-10-18T16:58:07.151Z,0.00
2022-10-18T16:59:08.070Z,0.00
2022-10-18T17:00:06.640Z,0.00
2022-10-18T17:01:09.059Z,0.00
2022-10-18T17:02:06.970Z,0.00
2022-10-18T17:03:07.091Z,0.00
2022-10-18T17:04:08.799Z,0.00
2022-10-18T17:05:07.380Z,0.00
2022-10-18T17:06:07.509Z,0.00
2022-10-18T17:07:07.640Z,0.00
2022-10-18T17:08:07.784Z,0.00
2022-10-18T17:09:09.524Z,0.00
2022-10-18T17:10:08.019Z,0.00
2022-10-18T17:11:09.752Z,0.00
2022-10-18T17:12:08.318Z,0.00
2022-10-18T17:13:08.478Z,0.00
2022-10-18T17:14:08.549Z,0.00
2022-10-18T17:15:10.308Z,0.00
2022-10-18T17:16:08.818Z,0.00
2022-10-18T17:17:10.549Z,0.00
2022-10-18T17:18:10.780Z,0.00
2022-10-18T17:19:09.193Z,0.00
2022-10-18T17:20:11.868Z,0.00
2022-10-18T17:21:09.460Z,0.00
2022-10-18T17:22:12.118Z,0.00
2022-10-18T17:23:09.729Z,0.00
2022-10-18T17:24:12.898Z,0.00
2022-10-18T17:25:10.017Z,0.00
2022-10-18T17:26:27.676Z,0.00
2022-10-18T17:27:13.844Z,0.00
2022-10-18T17:28:13.094Z,0.00
2022-10-18T17:29:11.949Z,0.00
2022-10-18T17:30:12.599Z,0.00
2022-10-18T17:31:10.906Z,0.00
2022-10-18T17:32:11.026Z,0.00
2022-10-18T17:33:11.165Z,0.00